sensor_id;sensor_type;location;lat;lon;timestamp;P1;durP1;ratioP1;P2;durP2;ratioP2
14892;SDS011;7538;53.626;9.906;2023-11-22T00:01:56;4.40;;;2.37;;
14892;SDS011;7538;53.626;9.906;2023-11-22T00:04:23;3.00;;;2.50;;
14892;SDS011;7538;53.626;9.906;2023-11-22T00:06:50;3.10;;;2.53;;
14892;SDS011;7538;53.626;9.906;2023-11-22T00:09:16;4.97;;;2.80;;
14892;SDS011;7538;53.626;9.906;2023-11-22T00:11:47;4.37;;;2.63;;
14892;SDS011;7538;53.626;9.906;2023-11-22T00:14:14;2.43;;;2.00;;
14892;SDS011;7538;53.626;9.906;2023-11-22T00:16:42;3.30;;;2.63;;
14892;SDS011;7538;53.626;9.906;2023-11-22T00:19:09;4.10;;;2.80;;
14892;SDS011;7538;53.626;9.906;2023-11-22T00:21:35;3.70;;;2.70;;
14892;SDS011;7538;53.626;9.906;2023-11-22T00:24:02;4.77;;;2.93;;
14892;SDS011;7538;53.626;9.906;2023-11-22T00:26:30;4.23;;;2.70;;
14892;SDS011;7538;53.626;9.906;2023-11-22T00:28:57;5.27;;;3.03;;
14892;SDS011;7538;53.626;9.906;2023-11-22T00:31:24;3.70;;;2.73;;
14892;SDS011;7538;53.626;9.906;2023-11-22T00:33:52;4.20;;;3.17;;
14892;SDS011;7538;53.626;9.906;2023-11-22T00:36:19;3.93;;;2.93;;
14892;SDS011;7538;53.626;9.906;2023-11-22T00:38:45;4.33;;;3.50;;
14892;SDS011;7538;53.626;9.906;2023-11-22T00:41:12;3.40;;;3.07;;
14892;SDS011;7538;53.626;9.906;2023-11-22T00:43:39;3.90;;;3.20;;
14892;SDS011;7538;53.626;9.906;2023-11-22T00:46:06;4.13;;;3.33;;
14892;SDS011;7538;53.626;9.906;2023-11-22T00:48:33;4.47;;;3.43;;
14892;SDS011;7538;53.626;9.906;2023-11-22T00:51:01;4.23;;;3.63;;
14892;SDS011;7538;53.626;9.906;2023-11-22T00:53:33;5.23;;;3.20;;
14892;SDS011;7538;53.626;9.906;2023-11-22T00:56:01;3.90;;;3.07;;
14892;SDS011;7538;53.626;9.906;2023-11-22T00:58:27;4.17;;;2.90;;
14892;SDS011;7538;53.626;9.906;2023-11-22T01:00:54;4.80;;;3.33;;
14892;SDS011;7538;53.626;9.906;2023-11-22T01:03:21;5.43;;;3.30;;
14892;SDS011;7538;53.626;9.906;2023-11-22T01:05:48;3.30;;;2.80;;
14892;SDS011;7538;53.626;9.906;2023-11-22T01:08:16;3.77;;;3.30;;
14892;SDS011;7538;53.626;9.906;2023-11-22T01:10:44;4.30;;;3.20;;
14892;SDS011;7538;53.626;9.906;2023-11-22T01:13:11;4.13;;;3.40;;
14892;SDS011;7538;53.626;9.906;2023-11-22T01:15:39;5.03;;;3.33;;
14892;SDS011;7538;53.626;9.906;2023-11-22T01:18:06;4.63;;;3.10;;
14892;SDS011;7538;53.626;9.906;2023-11-22T01:20:33;4.40;;;3.20;;
14892;SDS011;7538;53.626;9.906;2023-11-22T01:23:00;5.90;;;3.43;;
14892;SDS011;7538;53.626;9.906;2023-11-22T01:25:28;3.73;;;3.07;;
14892;SDS011;7538;53.626;9.906;2023-11-22T01:27:55;4.37;;;3.27;;
14892;SDS011;7538;53.626;9.906;2023-11-22T01:30:22;4.83;;;3.33;;
14892;SDS011;7538;53.626;9.906;2023-11-22T01:32:48;5.20;;;3.30;;
14892;SDS011;7538;53.626;9.906;2023-11-22T01:35:15;4.23;;;3.40;;
14892;SDS011;7538;53.626;9.906;2023-11-22T01:37:42;4.67;;;3.20;;
14892;SDS011;7538;53.626;9.906;2023-11-22T01:40:09;5.00;;;3.40;;
14892;SDS011;7538;53.626;9.906;2023-11-22T01:42:38;4.80;;;3.50;;
14892;SDS011;7538;53.626;9.906;2023-11-22T01:45:06;4.37;;;3.30;;
14892;SDS011;7538;53.626;9.906;2023-11-22T01:47:34;5.00;;;3.33;;
14892;SDS011;7538;53.626;9.906;2023-11-22T01:50:02;4.10;;;3.33;;
14892;SDS011;7538;53.626;9.906;2023-11-22T01:52:30;5.03;;;3.33;;
14892;SDS011;7538;53.626;9.906;2023-11-22T01:54:57;6.47;;;3.67;;
14892;SDS011;7538;53.626;9.906;2023-11-22T01:57:24;5.47;;;3.53;;
14892;SDS011;7538;53.626;9.906;2023-11-22T01:59:52;4.30;;;3.57;;
14892;SDS011;7538;53.626;9.906;2023-11-22T02:02:19;5.80;;;3.47;;
14892;SDS011;7538;53.626;9.906;2023-11-22T02:04:46;4.60;;;3.13;;
14892;SDS011;7538;53.626;9.906;2023-11-22T02:07:13;4.83;;;3.47;;
14892;SDS011;7538;53.626;9.906;2023-11-22T02:09:41;4.77;;;3.83;;
14892;SDS011;7538;53.626;9.906;2023-11-22T02:12:08;4.97;;;3.57;;
14892;SDS011;7538;53.626;9.906;2023-11-22T02:14:35;4.50;;;3.43;;
14892;SDS011;7538;53.626;9.906;2023-11-22T02:17:04;5.37;;;3.47;;
14892;SDS011;7538;53.626;9.906;2023-11-22T02:19:31;5.20;;;3.37;;
14892;SDS011;7538;53.626;9.906;2023-11-22T02:21:58;6.30;;;3.57;;
14892;SDS011;7538;53.626;9.906;2023-11-22T02:24:26;4.53;;;3.50;;
14892;SDS011;7538;53.626;9.906;2023-11-22T02:26:53;4.87;;;3.90;;
14892;SDS011;7538;53.626;9.906;2023-11-22T02:29:20;6.13;;;3.77;;
14892;SDS011;7538;53.626;9.906;2023-11-22T02:31:47;5.37;;;3.47;;
14892;SDS011;7538;53.626;9.906;2023-11-22T02:34:14;4.93;;;3.67;;
14892;SDS011;7538;53.626;9.906;2023-11-22T02:36:41;6.07;;;3.70;;
14892;SDS011;7538;53.626;9.906;2023-11-22T02:39:09;5.63;;;3.80;;
14892;SDS011;7538;53.626;9.906;2023-11-22T02:41:39;5.27;;;3.67;;
14892;SDS011;7538;53.626;9.906;2023-11-22T02:44:06;6.70;;;3.67;;
14892;SDS011;7538;53.626;9.906;2023-11-22T02:46:33;5.90;;;3.97;;
14892;SDS011;7538;53.626;9.906;2023-11-22T02:49:00;5.77;;;4.00;;
14892;SDS011;7538;53.626;9.906;2023-11-22T02:51:26;6.43;;;3.70;;
14892;SDS011;7538;53.626;9.906;2023-11-22T02:53:53;5.40;;;3.60;;
14892;SDS011;7538;53.626;9.906;2023-11-22T02:56:20;5.07;;;3.47;;
14892;SDS011;7538;53.626;9.906;2023-11-22T02:58:48;4.40;;;3.50;;
14892;SDS011;7538;53.626;9.906;2023-11-22T03:01:15;4.77;;;3.53;;
14892;SDS011;7538;53.626;9.906;2023-11-22T03:03:42;4.80;;;3.93;;
14892;SDS011;7538;53.626;9.906;2023-11-22T03:06:09;4.53;;;3.50;;
14892;SDS011;7538;53.626;9.906;2023-11-22T03:08:36;6.47;;;3.73;;
14892;SDS011;7538;53.626;9.906;2023-11-22T03:11:03;5.47;;;4.00;;
14892;SDS011;7538;53.626;9.906;2023-11-22T03:13:29;5.73;;;4.23;;
14892;SDS011;7538;53.626;9.906;2023-11-22T03:15:58;4.90;;;4.00;;
14892;SDS011;7538;53.626;9.906;2023-11-22T03:18:25;5.00;;;3.83;;
14892;SDS011;7538;53.626;9.906;2023-11-22T03:20:52;6.17;;;4.33;;
14892;SDS011;7538;53.626;9.906;2023-11-22T03:23:20;4.83;;;3.77;;
14892;SDS011;7538;53.626;9.906;2023-11-22T03:25:47;5.30;;;3.63;;
14892;SDS011;7538;53.626;9.906;2023-11-22T03:28:14;6.20;;;4.03;;
14892;SDS011;7538;53.626;9.906;2023-11-22T03:30:41;5.83;;;4.23;;
14892;SDS011;7538;53.626;9.906;2023-11-22T03:33:09;4.87;;;4.03;;
14892;SDS011;7538;53.626;9.906;2023-11-22T03:35:36;6.00;;;4.47;;
14892;SDS011;7538;53.626;9.906;2023-11-22T03:38:02;5.47;;;4.10;;
14892;SDS011;7538;53.626;9.906;2023-11-22T03:40:29;5.70;;;4.20;;
14892;SDS011;7538;53.626;9.906;2023-11-22T03:42:56;6.90;;;4.70;;
14892;SDS011;7538;53.626;9.906;2023-11-22T03:45:23;6.17;;;4.30;;
14892;SDS011;7538;53.626;9.906;2023-11-22T03:47:50;5.27;;;4.00;;
14892;SDS011;7538;53.626;9.906;2023-11-22T03:50:18;4.97;;;4.20;;
14892;SDS011;7538;53.626;9.906;2023-11-22T03:52:44;6.57;;;3.97;;
14892;SDS011;7538;53.626;9.906;2023-11-22T03:55:11;6.03;;;4.40;;
14892;SDS011;7538;53.626;9.906;2023-11-22T03:57:39;7.17;;;4.13;;
14892;SDS011;7538;53.626;9.906;2023-11-22T04:00:06;5.27;;;4.00;;
14892;SDS011;7538;53.626;9.906;2023-11-22T04:02:34;8.47;;;4.60;;
14892;SDS011;7538;53.626;9.906;2023-11-22T04:05:01;6.80;;;4.43;;
14892;SDS011;7538;53.626;9.906;2023-11-22T04:07:29;6.17;;;4.63;;
14892;SDS011;7538;53.626;9.906;2023-11-22T04:09:57;5.47;;;4.20;;
14892;SDS011;7538;53.626;9.906;2023-11-22T04:12:24;7.53;;;4.33;;
14892;SDS011;7538;53.626;9.906;2023-11-22T04:14:51;7.67;;;4.93;;
14892;SDS011;7538;53.626;9.906;2023-11-22T04:17:18;5.67;;;4.57;;
14892;SDS011;7538;53.626;9.906;2023-11-22T04:19:45;6.00;;;4.10;;
14892;SDS011;7538;53.626;9.906;2023-11-22T04:22:11;6.97;;;4.83;;
14892;SDS011;7538;53.626;9.906;2023-11-22T04:24:41;6.97;;;5.10;;
14892;SDS011;7538;53.626;9.906;2023-11-22T04:27:07;8.10;;;4.50;;
14892;SDS011;7538;53.626;9.906;2023-11-22T04:29:34;7.70;;;4.77;;
14892;SDS011;7538;53.626;9.906;2023-11-22T04:32:01;8.07;;;5.37;;
14892;SDS011;7538;53.626;9.906;2023-11-22T04:34:28;7.23;;;4.77;;
14892;SDS011;7538;53.626;9.906;2023-11-22T04:36:55;6.77;;;4.77;;
14892;SDS011;7538;53.626;9.906;2023-11-22T04:39:22;6.17;;;4.33;;
14892;SDS011;7538;53.626;9.906;2023-11-22T04:41:50;8.13;;;5.30;;
14892;SDS011;7538;53.626;9.906;2023-11-22T04:44:17;8.23;;;5.20;;
14892;SDS011;7538;53.626;9.906;2023-11-22T04:46:44;8.03;;;5.40;;
14892;SDS011;7538;53.626;9.906;2023-11-22T04:49:10;6.43;;;5.30;;
14892;SDS011;7538;53.626;9.906;2023-11-22T04:51:38;6.50;;;4.73;;
14892;SDS011;7538;53.626;9.906;2023-11-22T04:54:05;6.73;;;4.43;;
14892;SDS011;7538;53.626;9.906;2023-11-22T04:56:32;6.53;;;5.10;;
14892;SDS011;7538;53.626;9.906;2023-11-22T04:59:00;7.10;;;5.47;;
14892;SDS011;7538;53.626;9.906;2023-11-22T05:01:30;6.43;;;4.37;;
14892;SDS011;7538;53.626;9.906;2023-11-22T05:03:57;7.37;;;5.40;;
14892;SDS011;7538;53.626;9.906;2023-11-22T05:06:24;8.23;;;5.53;;
14892;SDS011;7538;53.626;9.906;2023-11-22T05:08:52;8.90;;;5.37;;
14892;SDS011;7538;53.626;9.906;2023-11-22T05:11:19;7.57;;;5.17;;
14892;SDS011;7538;53.626;9.906;2023-11-22T05:13:46;8.37;;;5.23;;
14892;SDS011;7538;53.626;9.906;2023-11-22T05:16:15;6.93;;;5.07;;
14892;SDS011;7538;53.626;9.906;2023-11-22T05:18:42;6.53;;;5.80;;
14892;SDS011;7538;53.626;9.906;2023-11-22T05:21:09;7.53;;;5.63;;
14892;SDS011;7538;53.626;9.906;2023-11-22T05:23:35;9.57;;;6.07;;
14892;SDS011;7538;53.626;9.906;2023-11-22T05:26:02;8.37;;;5.47;;
14892;SDS011;7538;53.626;9.906;2023-11-22T05:28:30;7.30;;;5.50;;
14892;SDS011;7538;53.626;9.906;2023-11-22T05:30:56;8.13;;;5.30;;
14892;SDS011;7538;53.626;9.906;2023-11-22T05:33:25;8.67;;;5.90;;
14892;SDS011;7538;53.626;9.906;2023-11-22T05:35:51;8.50;;;5.50;;
14892;SDS011;7538;53.626;9.906;2023-11-22T05:38:19;6.00;;;5.30;;
14892;SDS011;7538;53.626;9.906;2023-11-22T05:40:45;8.30;;;5.63;;
14892;SDS011;7538;53.626;9.906;2023-11-22T05:43:12;8.40;;;5.90;;
14892;SDS011;7538;53.626;9.906;2023-11-22T05:45:39;8.27;;;5.30;;
14892;SDS011;7538;53.626;9.906;2023-11-22T05:48:06;8.33;;;5.87;;
14892;SDS011;7538;53.626;9.906;2023-11-22T05:50:34;7.17;;;5.10;;
14892;SDS011;7538;53.626;9.906;2023-11-22T05:53:01;7.43;;;5.47;;
14892;SDS011;7538;53.626;9.906;2023-11-22T05:55:31;7.50;;;5.33;;
14892;SDS011;7538;53.626;9.906;2023-11-22T05:57:57;7.93;;;5.40;;
14892;SDS011;7538;53.626;9.906;2023-11-22T06:00:24;6.80;;;5.33;;
14892;SDS011;7538;53.626;9.906;2023-11-22T06:02:51;8.43;;;5.27;;
14892;SDS011;7538;53.626;9.906;2023-11-22T06:05:18;8.57;;;5.57;;
14892;SDS011;7538;53.626;9.906;2023-11-22T06:07:47;9.67;;;5.20;;
14892;SDS011;7538;53.626;9.906;2023-11-22T06:10:13;6.37;;;4.63;;
14892;SDS011;7538;53.626;9.906;2023-11-22T06:12:40;6.67;;;5.23;;
14892;SDS011;7538;53.626;9.906;2023-11-22T06:15:09;8.67;;;5.23;;
14892;SDS011;7538;53.626;9.906;2023-11-22T06:17:36;8.37;;;5.87;;
14892;SDS011;7538;53.626;9.906;2023-11-22T06:20:03;7.63;;;5.37;;
14892;SDS011;7538;53.626;9.906;2023-11-22T06:22:31;8.80;;;5.77;;
14892;SDS011;7538;53.626;9.906;2023-11-22T06:24:59;7.63;;;5.33;;
14892;SDS011;7538;53.626;9.906;2023-11-22T06:27:26;8.23;;;5.50;;
14892;SDS011;7538;53.626;9.906;2023-11-22T06:29:53;7.33;;;5.70;;
14892;SDS011;7538;53.626;9.906;2023-11-22T06:32:20;7.83;;;5.37;;
14892;SDS011;7538;53.626;9.906;2023-11-22T06:34:47;7.20;;;5.40;;
14892;SDS011;7538;53.626;9.906;2023-11-22T06:37:13;11.13;;;5.77;;
14892;SDS011;7538;53.626;9.906;2023-11-22T06:39:40;7.30;;;5.10;;
14892;SDS011;7538;53.626;9.906;2023-11-22T06:42:08;8.90;;;5.60;;
14892;SDS011;7538;53.626;9.906;2023-11-22T06:44:35;6.93;;;5.50;;
14892;SDS011;7538;53.626;9.906;2023-11-22T06:47:02;7.43;;;4.73;;
14892;SDS011;7538;53.626;9.906;2023-11-22T06:49:29;6.37;;;4.80;;
14892;SDS011;7538;53.626;9.906;2023-11-22T06:51:56;8.07;;;5.63;;
14892;SDS011;7538;53.626;9.906;2023-11-22T06:54:23;6.60;;;5.07;;
14892;SDS011;7538;53.626;9.906;2023-11-22T06:56:49;7.93;;;5.23;;
14892;SDS011;7538;53.626;9.906;2023-11-22T06:59:18;7.43;;;5.33;;
14892;SDS011;7538;53.626;9.906;2023-11-22T07:01:45;8.00;;;5.47;;
14892;SDS011;7538;53.626;9.906;2023-11-22T07:04:12;7.63;;;5.50;;
14892;SDS011;7538;53.626;9.906;2023-11-22T07:06:38;7.37;;;5.73;;
14892;SDS011;7538;53.626;9.906;2023-11-22T07:09:05;8.67;;;5.80;;
14892;SDS011;7538;53.626;9.906;2023-11-22T07:11:34;6.60;;;5.13;;
14892;SDS011;7538;53.626;9.906;2023-11-22T07:14:02;7.23;;;4.97;;
14892;SDS011;7538;53.626;9.906;2023-11-22T07:16:30;7.33;;;5.80;;
14892;SDS011;7538;53.626;9.906;2023-11-22T07:18:58;7.57;;;5.70;;
14892;SDS011;7538;53.626;9.906;2023-11-22T07:21:25;7.80;;;5.67;;
14892;SDS011;7538;53.626;9.906;2023-11-22T07:23:52;7.07;;;6.00;;
14892;SDS011;7538;53.626;9.906;2023-11-22T07:26:18;8.40;;;5.83;;
14892;SDS011;7538;53.626;9.906;2023-11-22T07:28:45;9.80;;;6.70;;
14892;SDS011;7538;53.626;9.906;2023-11-22T07:31:12;14.80;;;8.93;;
14892;SDS011;7538;53.626;9.906;2023-11-22T07:33:40;15.70;;;8.80;;
14892;SDS011;7538;53.626;9.906;2023-11-22T07:36:07;12.93;;;8.70;;
14892;SDS011;7538;53.626;9.906;2023-11-22T07:38:34;14.93;;;8.70;;
14892;SDS011;7538;53.626;9.906;2023-11-22T07:41:02;14.20;;;8.90;;
14892;SDS011;7538;53.626;9.906;2023-11-22T07:43:29;13.07;;;7.17;;
14892;SDS011;7538;53.626;9.906;2023-11-22T07:45:55;9.30;;;6.70;;
14892;SDS011;7538;53.626;9.906;2023-11-22T07:48:24;10.57;;;6.73;;
14892;SDS011;7538;53.626;9.906;2023-11-22T07:50:53;10.03;;;6.77;;
14892;SDS011;7538;53.626;9.906;2023-11-22T07:53:21;11.17;;;6.87;;
14892;SDS011;7538;53.626;9.906;2023-11-22T07:55:47;9.53;;;6.30;;
14892;SDS011;7538;53.626;9.906;2023-11-22T07:58:14;7.77;;;5.93;;
14892;SDS011;7538;53.626;9.906;2023-11-22T08:00:41;8.17;;;6.70;;
14892;SDS011;7538;53.626;9.906;2023-11-22T08:03:08;9.57;;;6.67;;
14892;SDS011;7538;53.626;9.906;2023-11-22T08:05:35;9.93;;;7.53;;
14892;SDS011;7538;53.626;9.906;2023-11-22T08:08:06;11.40;;;7.40;;
14892;SDS011;7538;53.626;9.906;2023-11-22T08:10:33;11.50;;;7.13;;
14892;SDS011;7538;53.626;9.906;2023-11-22T08:13:00;10.03;;;7.07;;
14892;SDS011;7538;53.626;9.906;2023-11-22T08:15:28;8.17;;;6.10;;
14892;SDS011;7538;53.626;9.906;2023-11-22T08:17:56;9.10;;;6.93;;
14892;SDS011;7538;53.626;9.906;2023-11-22T08:20:23;7.83;;;6.20;;
14892;SDS011;7538;53.626;9.906;2023-11-22T08:22:50;9.30;;;6.67;;
14892;SDS011;7538;53.626;9.906;2023-11-22T08:25:19;10.17;;;6.43;;
14892;SDS011;7538;53.626;9.906;2023-11-22T08:27:46;8.63;;;6.43;;
14892;SDS011;7538;53.626;9.906;2023-11-22T08:30:12;9.33;;;6.93;;
14892;SDS011;7538;53.626;9.906;2023-11-22T08:32:40;9.40;;;6.97;;
14892;SDS011;7538;53.626;9.906;2023-11-22T08:35:08;11.83;;;7.77;;
14892;SDS011;7538;53.626;9.906;2023-11-22T08:37:35;12.50;;;8.73;;
14892;SDS011;7538;53.626;9.906;2023-11-22T08:40:06;15.77;;;8.60;;
14892;SDS011;7538;53.626;9.906;2023-11-22T08:42:35;12.70;;;8.80;;
14892;SDS011;7538;53.626;9.906;2023-11-22T08:45:02;12.97;;;8.70;;
14892;SDS011;7538;53.626;9.906;2023-11-22T08:47:30;11.60;;;8.30;;
14892;SDS011;7538;53.626;9.906;2023-11-22T08:49:57;11.10;;;8.00;;
14892;SDS011;7538;53.626;9.906;2023-11-22T08:52:24;10.50;;;7.43;;
14892;SDS011;7538;53.626;9.906;2023-11-22T08:54:51;12.27;;;7.83;;
14892;SDS011;7538;53.626;9.906;2023-11-22T08:57:17;13.07;;;8.30;;
14892;SDS011;7538;53.626;9.906;2023-11-22T08:59:46;12.17;;;8.97;;
14892;SDS011;7538;53.626;9.906;2023-11-22T09:02:13;12.77;;;8.77;;
14892;SDS011;7538;53.626;9.906;2023-11-22T09:04:40;12.73;;;9.47;;
14892;SDS011;7538;53.626;9.906;2023-11-22T09:07:08;13.53;;;9.23;;
14892;SDS011;7538;53.626;9.906;2023-11-22T09:09:39;14.77;;;10.30;;
14892;SDS011;7538;53.626;9.906;2023-11-22T09:12:06;15.73;;;10.30;;
14892;SDS011;7538;53.626;9.906;2023-11-22T09:14:37;18.17;;;11.27;;
14892;SDS011;7538;53.626;9.906;2023-11-22T09:17:07;12.00;;;9.50;;
14892;SDS011;7538;53.626;9.906;2023-11-22T09:19:34;16.03;;;10.57;;
14892;SDS011;7538;53.626;9.906;2023-11-22T09:22:02;15.77;;;10.90;;
14892;SDS011;7538;53.626;9.906;2023-11-22T09:24:32;14.80;;;9.83;;
14892;SDS011;7538;53.626;9.906;2023-11-22T09:27:02;14.47;;;9.90;;
14892;SDS011;7538;53.626;9.906;2023-11-22T09:29:30;14.40;;;9.60;;
14892;SDS011;7538;53.626;9.906;2023-11-22T09:31:57;12.13;;;8.97;;
14892;SDS011;7538;53.626;9.906;2023-11-22T09:34:27;10.33;;;8.40;;
14892;SDS011;7538;53.626;9.906;2023-11-22T09:36:54;10.07;;;8.83;;
14892;SDS011;7538;53.626;9.906;2023-11-22T09:39:21;10.23;;;8.20;;
14892;SDS011;7538;53.626;9.906;2023-11-22T09:41:55;10.33;;;8.17;;
14892;SDS011;7538;53.626;9.906;2023-11-22T09:44:21;11.23;;;7.90;;
14892;SDS011;7538;53.626;9.906;2023-11-22T09:46:48;9.17;;;8.20;;
14892;SDS011;7538;53.626;9.906;2023-11-22T09:49:19;8.37;;;7.40;;
14892;SDS011;7538;53.626;9.906;2023-11-22T09:51:54;9.10;;;6.40;;
14892;SDS011;7538;53.626;9.906;2023-11-22T09:54:24;7.33;;;6.20;;
14892;SDS011;7538;53.626;9.906;2023-11-22T09:56:56;8.50;;;6.17;;
14892;SDS011;7538;53.626;9.906;2023-11-22T09:59:26;9.57;;;6.33;;
14892;SDS011;7538;53.626;9.906;2023-11-22T10:01:54;9.53;;;6.20;;
14892;SDS011;7538;53.626;9.906;2023-11-22T10:04:24;8.00;;;6.03;;
14892;SDS011;7538;53.626;9.906;2023-11-22T10:06:55;10.33;;;6.63;;
14892;SDS011;7538;53.626;9.906;2023-11-22T10:09:23;7.70;;;5.90;;
14892;SDS011;7538;53.626;9.906;2023-11-22T10:11:52;8.65;;;6.00;;
14892;SDS011;7538;53.626;9.906;2023-11-22T10:14:22;7.10;;;6.13;;
14892;SDS011;7538;53.626;9.906;2023-11-22T10:16:57;7.60;;;5.60;;
14892;SDS011;7538;53.626;9.906;2023-11-22T10:19:25;8.63;;;5.20;;
14892;SDS011;7538;53.626;9.906;2023-11-22T10:22:03;5.40;;;4.20;;
14892;SDS011;7538;53.626;9.906;2023-11-22T10:24:34;7.13;;;4.60;;
14892;SDS011;7538;53.626;9.906;2023-11-22T10:27:02;6.63;;;3.92;;
14892;SDS011;7538;53.626;9.906;2023-11-22T10:29:29;5.47;;;4.20;;
14892;SDS011;7538;53.626;9.906;2023-11-22T10:31:55;7.00;;;5.20;;
14892;SDS011;7538;53.626;9.906;2023-11-22T10:34:23;6.50;;;4.10;;
14892;SDS011;7538;53.626;9.906;2023-11-22T10:36:51;7.27;;;4.40;;
14892;SDS011;7538;53.626;9.906;2023-11-22T10:39:20;5.97;;;4.73;;
14892;SDS011;7538;53.626;9.906;2023-11-22T10:41:47;8.27;;;4.63;;
14892;SDS011;7538;53.626;9.906;2023-11-22T10:44:16;6.73;;;4.57;;
14892;SDS011;7538;53.626;9.906;2023-11-22T10:46:46;6.50;;;4.53;;
14892;SDS011;7538;53.626;9.906;2023-11-22T10:49:13;5.50;;;4.00;;
14892;SDS011;7538;53.626;9.906;2023-11-22T10:51:40;5.27;;;3.70;;
14892;SDS011;7538;53.626;9.906;2023-11-22T10:54:10;4.30;;;3.57;;
14892;SDS011;7538;53.626;9.906;2023-11-22T10:56:39;6.10;;;3.63;;
14892;SDS011;7538;53.626;9.906;2023-11-22T10:59:10;4.23;;;3.37;;
14892;SDS011;7538;53.626;9.906;2023-11-22T11:01:39;4.90;;;3.20;;
14892;SDS011;7538;53.626;9.906;2023-11-22T11:04:17;4.27;;;3.37;;
14892;SDS011;7538;53.626;9.906;2023-11-22T11:06:46;4.37;;;3.03;;
14892;SDS011;7538;53.626;9.906;2023-11-22T11:09:19;4.57;;;2.93;;
14892;SDS011;7538;53.626;9.906;2023-11-22T11:11:53;6.00;;;3.70;;
14892;SDS011;7538;53.626;9.906;2023-11-22T11:14:22;4.03;;;2.60;;
14892;SDS011;7538;53.626;9.906;2023-11-22T11:16:50;3.23;;;2.37;;
14892;SDS011;7538;53.626;9.906;2023-11-22T11:19:19;2.93;;;2.23;;
14892;SDS011;7538;53.626;9.906;2023-11-22T11:21:49;2.57;;;2.20;;
14892;SDS011;7538;53.626;9.906;2023-11-22T11:24:16;2.47;;;2.20;;
14892;SDS011;7538;53.626;9.906;2023-11-22T11:26:46;3.30;;;2.17;;
14892;SDS011;7538;53.626;9.906;2023-11-22T11:32:02;3.03;;;1.90;;
14892;SDS011;7538;53.626;9.906;2023-11-22T11:34:29;3.13;;;2.23;;
14892;SDS011;7538;53.626;9.906;2023-11-22T11:36:56;2.40;;;1.90;;
14892;SDS011;7538;53.626;9.906;2023-11-22T11:39:26;2.97;;;1.87;;
14892;SDS011;7538;53.626;9.906;2023-11-22T11:42:08;3.00;;;2.40;;
14892;SDS011;7538;53.626;9.906;2023-11-22T11:44:37;3.27;;;1.90;;
14892;SDS011;7538;53.626;9.906;2023-11-22T11:47:16;2.40;;;2.00;;
14892;SDS011;7538;53.626;9.906;2023-11-22T11:49:43;3.63;;;1.90;;
14892;SDS011;7538;53.626;9.906;2023-11-22T11:52:10;3.17;;;1.60;;
14892;SDS011;7538;53.626;9.906;2023-11-22T11:54:39;3.53;;;2.00;;
14892;SDS011;7538;53.626;9.906;2023-11-22T11:57:06;2.87;;;1.70;;
14892;SDS011;7538;53.626;9.906;2023-11-22T11:59:33;2.10;;;1.67;;
14892;SDS011;7538;53.626;9.906;2023-11-22T12:02:01;2.07;;;1.73;;
14892;SDS011;7538;53.626;9.906;2023-11-22T12:04:30;4.77;;;2.30;;
14892;SDS011;7538;53.626;9.906;2023-11-22T12:06:58;4.67;;;1.97;;
14892;SDS011;7538;53.626;9.906;2023-11-22T12:09:24;3.73;;;2.30;;
14892;SDS011;7538;53.626;9.906;2023-11-22T12:11:52;3.27;;;2.13;;
14892;SDS011;7538;53.626;9.906;2023-11-22T12:14:19;2.83;;;2.05;;
14892;SDS011;7538;53.626;9.906;2023-11-22T12:16:47;2.00;;;1.73;;
14892;SDS011;7538;53.626;9.906;2023-11-22T12:19:21;1.97;;;1.57;;
14892;SDS011;7538;53.626;9.906;2023-11-22T12:21:49;2.30;;;1.60;;
14892;SDS011;7538;53.626;9.906;2023-11-22T12:24:16;2.17;;;1.60;;
14892;SDS011;7538;53.626;9.906;2023-11-22T12:26:47;3.58;;;1.40;;
14892;SDS011;7538;53.626;9.906;2023-11-22T12:29:17;2.03;;;1.60;;
14892;SDS011;7538;53.626;9.906;2023-11-22T12:31:44;2.23;;;1.50;;
14892;SDS011;7538;53.626;9.906;2023-11-22T12:34:13;1.60;;;1.20;;
14892;SDS011;7538;53.626;9.906;2023-11-22T12:36:42;2.63;;;1.30;;
14892;SDS011;7538;53.626;9.906;2023-11-22T12:39:12;1.67;;;1.23;;
14892;SDS011;7538;53.626;9.906;2023-11-22T12:41:42;1.73;;;1.23;;
14892;SDS011;7538;53.626;9.906;2023-11-22T12:44:14;2.27;;;1.20;;
14892;SDS011;7538;53.626;9.906;2023-11-22T12:46:47;1.10;;;0.82;;
14892;SDS011;7538;53.626;9.906;2023-11-22T12:49:17;1.00;;;0.87;;
14892;SDS011;7538;53.626;9.906;2023-11-22T12:51:49;1.30;;;1.00;;
14892;SDS011;7538;53.626;9.906;2023-11-22T12:54:17;1.13;;;0.80;;
14892;SDS011;7538;53.626;9.906;2023-11-22T12:56:46;1.13;;;0.80;;
14892;SDS011;7538;53.626;9.906;2023-11-22T12:59:15;0.70;;;0.70;;
14892;SDS011;7538;53.626;9.906;2023-11-22T13:01:42;1.07;;;0.90;;
14892;SDS011;7538;53.626;9.906;2023-11-22T13:04:09;1.43;;;1.10;;
14892;SDS011;7538;53.626;9.906;2023-11-22T13:06:40;1.87;;;1.50;;
14892;SDS011;7538;53.626;9.906;2023-11-22T13:09:08;1.67;;;1.20;;
14892;SDS011;7538;53.626;9.906;2023-11-22T13:11:40;2.57;;;1.20;;
14892;SDS011;7538;53.626;9.906;2023-11-22T13:14:07;3.50;;;1.30;;
14892;SDS011;7538;53.626;9.906;2023-11-22T13:16:34;2.00;;;1.70;;
14892;SDS011;7538;53.626;9.906;2023-11-22T13:19:03;1.47;;;1.20;;
14892;SDS011;7538;53.626;9.906;2023-11-22T13:21:30;2.27;;;1.70;;
14892;SDS011;7538;53.626;9.906;2023-11-22T13:23:58;2.00;;;1.50;;
14892;SDS011;7538;53.626;9.906;2023-11-22T13:26:26;1.90;;;1.10;;
14892;SDS011;7538;53.626;9.906;2023-11-22T13:28:53;1.50;;;1.40;;
14892;SDS011;7538;53.626;9.906;2023-11-22T13:31:21;1.60;;;1.30;;
14892;SDS011;7538;53.626;9.906;2023-11-22T13:33:48;2.80;;;1.33;;
14892;SDS011;7538;53.626;9.906;2023-11-22T13:36:15;1.77;;;1.30;;
14892;SDS011;7538;53.626;9.906;2023-11-22T13:38:42;1.57;;;1.47;;
14892;SDS011;7538;53.626;9.906;2023-11-22T13:41:09;2.50;;;1.50;;
14892;SDS011;7538;53.626;9.906;2023-11-22T13:43:37;2.10;;;1.40;;
14892;SDS011;7538;53.626;9.906;2023-11-22T13:46:04;2.87;;;1.30;;
14892;SDS011;7538;53.626;9.906;2023-11-22T13:48:32;1.60;;;1.37;;
14892;SDS011;7538;53.626;9.906;2023-11-22T13:50:58;1.97;;;1.77;;
14892;SDS011;7538;53.626;9.906;2023-11-22T13:53:26;2.17;;;1.73;;
14892;SDS011;7538;53.626;9.906;2023-11-22T13:55:57;1.50;;;1.40;;
14892;SDS011;7538;53.626;9.906;2023-11-22T13:58:25;2.20;;;1.77;;
14892;SDS011;7538;53.626;9.906;2023-11-22T14:00:53;2.00;;;1.80;;
14892;SDS011;7538;53.626;9.906;2023-11-22T14:03:20;2.43;;;2.00;;
14892;SDS011;7538;53.626;9.906;2023-11-22T14:05:48;2.47;;;1.60;;
14892;SDS011;7538;53.626;9.906;2023-11-22T14:08:15;2.27;;;1.93;;
14892;SDS011;7538;53.626;9.906;2023-11-22T14:10:41;2.10;;;1.90;;
14892;SDS011;7538;53.626;9.906;2023-11-22T14:13:10;2.93;;;1.70;;
14892;SDS011;7538;53.626;9.906;2023-11-22T14:15:37;3.97;;;1.90;;
14892;SDS011;7538;53.626;9.906;2023-11-22T14:18:05;2.70;;;1.77;;
14892;SDS011;7538;53.626;9.906;2023-11-22T14:20:32;3.33;;;1.60;;
14892;SDS011;7538;53.626;9.906;2023-11-22T14:22:59;2.23;;;1.80;;
14892;SDS011;7538;53.626;9.906;2023-11-22T14:25:26;3.73;;;1.90;;
14892;SDS011;7538;53.626;9.906;2023-11-22T14:27:54;2.97;;;1.93;;
14892;SDS011;7538;53.626;9.906;2023-11-22T14:30:24;2.60;;;1.93;;
14892;SDS011;7538;53.626;9.906;2023-11-22T14:32:54;2.33;;;1.73;;
14892;SDS011;7538;53.626;9.906;2023-11-22T14:35:24;3.13;;;1.80;;
14892;SDS011;7538;53.626;9.906;2023-11-22T14:37:52;1.63;;;1.50;;
14892;SDS011;7538;53.626;9.906;2023-11-22T14:40:19;2.10;;;1.60;;
14892;SDS011;7538;53.626;9.906;2023-11-22T14:42:46;2.63;;;2.13;;
14892;SDS011;7538;53.626;9.906;2023-11-22T14:45:14;4.63;;;2.27;;
14892;SDS011;7538;53.626;9.906;2023-11-22T14:47:41;2.13;;;1.90;;
14892;SDS011;7538;53.626;9.906;2023-11-22T14:50:10;2.80;;;2.10;;
14892;SDS011;7538;53.626;9.906;2023-11-22T14:52:41;2.57;;;2.10;;
14892;SDS011;7538;53.626;9.906;2023-11-22T14:55:09;2.50;;;1.80;;
14892;SDS011;7538;53.626;9.906;2023-11-22T14:57:37;4.27;;;1.60;;
14892;SDS011;7538;53.626;9.906;2023-11-22T15:00:05;1.93;;;1.53;;
14892;SDS011;7538;53.626;9.906;2023-11-22T15:02:34;1.70;;;1.60;;
14892;SDS011;7538;53.626;9.906;2023-11-22T15:05:01;2.77;;;1.60;;
14892;SDS011;7538;53.626;9.906;2023-11-22T15:07:29;2.30;;;1.70;;